Columbus, OH

5:10 AM EDT on November 01, 2014 (GMT -0400)
WX8Q Worthington Estates East | Change Station
CLOSE
Current Station
Personal Weather Station
Location: Worthington, OH
Elevation: 922 ft
Nearby Weather Stations
Active Advisory: Freeze Warning

Elev 922 ft 40.10 °N, 83.01 °W | Updated 39 seconds ago

Overcast
Overcast
37.8 °F
Feels Like 34 °F
N
5.4
Wind Variable Wind from NNE
Gusts 10.7 mph

Today
High -- | Low -- °F
--% Chance of Precip.
Yesterday
High -- | Low -- °F
Precip. -- in
8:01 AM 6:29 PM
Waxing Gibbous, 64% visible
Pressure 29.99 in
Visibility 10.0 miles
Clouds Mostly Cloudy 1000 ft
Overcast 1500 ft
Windchill 34 °F
Dew Point 38 °F
Humidity 99%
Rainfall 0.00 in
Snow Depth Not available.
UV 0.0 out of 12
Pollen .10 out of 12
Air Quality Not available.
Flu Activity Not available.
SPECI KOSU 010904Z AUTO 35015G23KT 10SM BKN010 OVC015 03/02 A2999 RMK AO2 CIG 008V012 T00330017

More Conditions Fewer Conditions

Pressure 29.99 in
Visibility 10.0 miles
Clouds Mostly Cloudy 1000 ft
Overcast 1500 ft
Windchill 34 °F
Dew Point 38 °F
Humidity 99%
Rainfall 0.00 in
Snow Depth Not available.
UV 0.0 out of 12
Pollen .10 out of 12
Air Quality Not available.
Flu Activity Not available.
SPECI KOSU 010904Z AUTO 35015G23KT 10SM BKN010 OVC015 03/02 A2999 RMK AO2 CIG 008V012 T00330017

More Conditions Fewer Conditions

10-Day Weather Forecast

Almanac

Astronomy

Nov. 01, 2014 Rise Set
Actual Time
Civil Twilight
Nautical Twilight
Astronomical Twilight
Moon
Length of Visible Light
Length of Day
Tomorrow will be .
, % of the Moon is Illuminated

Today's Extremes

State Highs State Lows

Community

WunderPhotos

Upload Photos

1,766,872 photos uploaded!

WunderBlogs® & News

Nearby

Air Quality

  Air Quality AQ Index Pollutant
Not available.

Snow Depth

Station Depth Elevation

Earthquake Activity

City Distance Mag. Time & Date
Minimum magnitude displayed is 2.5.

Coastal Water Temperatures

Place Temperature

Nearby Weather Stations